Thiruvananthapuram, India (VOTV) 08-28N 076-57E 8M
Sep 23, 2019 - 02:30 PM EDT / 2019.09.23 1830 UTC
Wind: Calm:0
Visibility: 1 mile(s):0
Sky conditions: mostly cloudy
Weather: mist; Cumulonimbus clouds observed
Temperature: 78 F (26 C)
Dew Point: 77 F (25 C)
Relative Humidity: 94%
Pressure (altimeter): 29.80 in. Hg (1009 hPa)
ob: VOTV 231830Z 00000KT 3000 BR FEW010 SCT012 FEW025CB BKN080 26/25 Q1009 NOSIG
cycle: 18